Time;durP1;ratioP1;P1;durP2;ratioP2;P2;SDS_P1;SDS_P2;PMS_P1;PMS_P2;Temp;Humidity;BMP_temperature;BMP_pressure;BME280_temperature;BME280_humidity;BME280_pressure;Samples;Min_cycle;Max_cycle;Signal;HPM_P1;HPM_P2
2023/11/19 00:01:59;;;;;;;3.10;2.90;;;5.30;82.80;;;;;;5028968;28;20216;-52
2023/11/19 00:04:26;;;;;;;3.30;3.10;;;5.30;81.90;;;;;;5029717;28;20206;-51
2023/11/19 00:06:52;;;;;;;3.27;3.07;;;5.30;82.90;;;;;;5039701;28;20271;-51
2023/11/19 00:09:19;;;;;;;3.47;3.27;;;5.30;83.40;;;;;;5036825;28;20210;-52
2023/11/19 00:11:45;;;;;;;3.30;3.10;;;5.30;83.20;;;;;;5027107;28;20302;-50
2023/11/19 00:14:12;;;;;;;3.40;3.10;;;5.30;83.40;;;;;;5027547;28;20290;-52
2023/11/19 00:16:38;;;;;;;3.67;3.37;;;5.40;84.30;;;;;;5033092;28;20285;-51
2023/11/19 00:19:05;;;;;;;3.70;3.30;;;5.40;83.90;;;;;;5033189;28;20202;-52
2023/11/19 00:21:33;;;;;;;4.20;3.80;;;5.40;84.50;;;;;;5034044;28;20210;-53
2023/11/19 00:23:59;;;;;;;3.40;3.20;;;5.40;84.70;;;;;;5034582;28;20209;-52
2023/11/19 00:26:25;;;;;;;3.40;3.10;;;5.50;85.30;;;;;;5027816;28;20338;-55
2023/11/19 00:28:52;;;;;;;3.80;3.50;;;5.50;85.50;;;;;;5039436;28;20199;-53
2023/11/19 00:31:19;;;;;;;3.50;3.20;;;5.50;85.60;;;;;;5028324;28;20413;-56
2023/11/19 00:33:45;;;;;;;3.63;3.33;;;5.60;86.10;;;;;;5033347;28;20303;-52
2023/11/19 00:36:13;;;;;;;3.23;3.03;;;5.60;85.80;;;;;;5037742;28;20265;-55
2023/11/19 00:38:39;;;;;;;3.30;3.10;;;5.70;86.10;;;;;;5033297;28;20230;-53
2023/11/19 00:41:06;;;;;;;4.00;3.57;;;5.70;85.60;;;;;;5034061;28;20683;-52
2023/11/19 00:43:32;;;;;;;3.77;3.47;;;5.80;85.70;;;;;;5032459;28;20204;-52
2023/11/19 00:45:59;;;;;;;3.60;3.20;;;5.80;99.90;;;;;;5033705;28;20280;-53
2023/11/19 00:48:26;;;;;;;4.00;3.60;;;5.80;90.90;;;;;;5030355;28;20302;-54
2023/11/19 00:50:53;;;;;;;3.60;3.17;;;5.90;90.80;;;;;;5038023;28;20210;-52
2023/11/19 00:53:19;;;;;;;3.30;3.00;;;5.90;94.80;;;;;;5038717;28;20767;-51
2023/11/19 00:55:46;;;;;;;3.70;3.40;;;5.90;88.50;;;;;;5032450;28;20350;-51
2023/11/19 00:58:13;;;;;;;3.43;3.10;;;;;;;;;;5033071;28;20976;-51
2023/11/19 01:00:39;;;;;;;4.13;3.77;;;6.00;89.30;;;;;;5032511;28;20198;-52
2023/11/19 01:03:07;;;;;;;4.13;3.40;;;6.00;90.00;;;;;;5030913;28;20350;-53
2023/11/19 01:05:33;;;;;;;4.20;3.87;;;5.90;89.80;;;;;;5030223;28;20219;-54
2023/11/19 01:08:00;;;;;;;3.97;3.60;;;6.00;90.10;;;;;;5030591;28;20213;-54
2023/11/19 01:10:26;;;;;;;3.87;3.57;;;5.90;90.20;;;;;;5031320;28;20203;-55
2023/11/19 01:12:53;;;;;;;3.43;3.23;;;6.00;90.30;;;;;;5033357;28;20211;-52
2023/11/19 01:15:19;;;;;;;3.20;3.00;;;6.10;90.40;;;;;;5031544;28;20316;-53
2023/11/19 01:17:46;;;;;;;3.33;3.13;;;6.10;90.70;;;;;;5032067;28;20217;-54
2023/11/19 01:20:13;;;;;;;3.87;3.47;;;6.10;90.80;;;;;;5030692;28;20241;-55
2023/11/19 01:22:40;;;;;;;4.03;3.60;;;6.10;91.10;;;;;;5033358;28;20206;-54
2023/11/19 01:25:06;;;;;;;3.63;3.33;;;6.20;91.00;;;;;;5028632;28;20234;-52
2023/11/19 01:27:34;;;;;;;3.17;2.93;;;6.20;91.00;;;;;;5023882;28;20295;-51
2023/11/19 01:30:02;;;;;;;3.50;3.10;;;6.20;90.40;;;;;;5028879;28;20262;-54
2023/11/19 01:32:28;;;;;;;3.73;3.43;;;6.20;90.60;;;;;;5028734;28;20209;-55
2023/11/19 01:34:54;;;;;;;3.57;3.30;;;6.20;90.70;;;;;;5037066;28;20228;-52
2023/11/19 01:37:21;;;;;;;3.57;3.27;;;6.20;90.80;;;;;;5027322;28;20201;-52
2023/11/19 01:39:47;;;;;;;3.43;3.20;;;6.20;90.80;;;;;;5033406;28;20209;-53
2023/11/19 01:42:14;;;;;;;3.77;3.47;;;6.20;90.70;;;;;;5032497;28;20315;-49
2023/11/19 01:44:40;;;;;;;3.20;2.90;;;6.20;90.60;;;;;;5024754;28;20523;-54
2023/11/19 01:47:07;;;;;;;3.30;3.00;;;6.30;90.60;;;;;;5024723;28;20622;-53
2023/11/19 01:49:33;;;;;;;3.67;3.30;;;6.20;90.70;;;;;;5028089;28;20558;-52
2023/11/19 01:52:00;;;;;;;3.70;3.20;;;6.30;90.90;;;;;;5031784;28;20715;-51
2023/11/19 01:54:27;;;;;;;3.73;3.40;;;6.30;90.90;;;;;;5031005;28;20209;-51
2023/11/19 01:56:56;;;;;;;3.03;2.80;;;6.30;91.20;;;;;;5034958;28;20233;-51
2023/11/19 01:59:26;;;;;;;3.20;2.70;;;6.40;90.70;;;;;;5032315;28;20261;-51
2023/11/19 02:01:52;;;;;;;3.30;3.00;;;6.40;91.00;;;;;;5038500;28;20208;-56
2023/11/19 02:04:19;;;;;;;3.20;2.90;;;6.50;91.20;;;;;;5030177;28;20357;-53
2023/11/19 02:06:46;;;;;;;2.90;2.70;;;6.50;91.60;;;;;;5031874;28;20326;-54
2023/11/19 02:09:13;;;;;;;2.90;2.70;;;6.60;91.80;;;;;;5029669;28;20209;-53
2023/11/19 02:11:39;;;;;;;2.53;2.33;;;6.60;91.80;;;;;;5030574;28;20291;-53
2023/11/19 02:14:06;;;;;;;3.20;2.90;;;6.70;91.90;;;;;;5030228;28;20287;-55
2023/11/19 02:16:33;;;;;;;3.10;2.90;;;6.70;91.70;;;;;;5027291;28;20230;-53
2023/11/19 02:18:59;;;;;;;2.63;2.43;;;6.80;91.70;;;;;;5031119;28;20206;-56
2023/11/19 02:21:26;;;;;;;3.10;2.83;;;6.80;91.80;;;;;;5035931;28;20238;-51
2023/11/19 02:23:52;;;;;;;3.30;3.00;;;6.80;91.90;;;;;;5033080;28;20289;-54
2023/11/19 02:26:19;;;;;;;2.80;2.57;;;6.90;91.90;;;;;;5031363;28;20261;-54
2023/11/19 02:28:45;;;;;;;2.87;2.67;;;6.90;91.90;;;;;;5030869;28;20202;-51
2023/11/19 02:31:11;;;;;;;2.60;2.40;;;6.90;91.90;;;;;;5029293;28;20209;-52
2023/11/19 02:33:38;;;;;;;2.60;2.40;;;7.00;92.20;;;;;;5027314;28;20303;-51
2023/11/19 02:36:04;;;;;;;2.53;2.43;;;7.10;92.50;;;;;;5030356;28;20230;-55
2023/11/19 02:38:31;;;;;;;2.43;2.33;;;7.10;92.70;;;;;;5031275;28;20204;-53
2023/11/19 02:40:58;;;;;;;2.20;2.10;;;7.10;94.30;;;;;;5030491;28;20205;-56
2023/11/19 02:43:24;;;;;;;2.43;2.30;;;7.20;94.50;;;;;;5031711;28;20295;-54
2023/11/19 02:45:51;;;;;;;2.20;2.10;;;;;;;;;;5027384;28;20306;-51
2023/11/19 02:48:18;;;;;;;2.57;2.30;;;7.30;99.90;;;;;;5022873;28;20295;-50
2023/11/19 02:50:44;;;;;;;1.80;1.70;;;7.30;99.90;;;;;;5030987;28;20216;-56
2023/11/19 02:53:11;;;;;;;2.20;2.00;;;7.40;99.90;;;;;;5039748;28;20295;-51
2023/11/19 02:55:40;;;;;;;2.00;1.90;;;7.50;99.90;;;;;;5024056;28;20235;-52
2023/11/19 02:58:19;;;;;;;1.90;1.80;;;7.50;93.40;;;;;;5036000;28;20212;-51
2023/11/19 03:00:52;;;;;;;2.03;1.93;;;7.60;93.70;;;;;;5019918;28;20294;-52
2023/11/19 03:03:20;;;;;;;1.90;1.80;;;;;;;;;;5027865;28;20270;-53
2023/11/19 03:05:47;;;;;;;2.07;1.97;;;;;;;;;;5029888;28;20316;-52
2023/11/19 03:08:14;;;;;;;1.90;1.80;;;7.80;94.00;;;;;;5023213;28;20291;-53
2023/11/19 03:10:40;;;;;;;1.90;1.80;;;7.80;94.30;;;;;;5029841;28;20215;-54
2023/11/19 03:13:07;;;;;;;2.20;2.10;;;7.90;94.00;;;;;;5027658;28;20211;-54
2023/11/19 03:15:34;;;;;;;1.90;1.70;;;7.90;93.90;;;;;;5027549;28;20224;-52
2023/11/19 03:18:00;;;;;;;1.87;1.77;;;7.90;93.90;;;;;;5025828;28;20240;-53
2023/11/19 03:20:29;;;;;;;1.80;1.70;;;7.90;94.10;;;;;;5027442;28;20210;-52
2023/11/19 03:22:55;;;;;;;2.10;1.90;;;8.00;94.60;;;;;;5026771;28;20672;-51
2023/11/19 03:25:23;;;;;;;1.90;1.80;;;8.00;94.10;;;;;;5030992;28;20228;-52
2023/11/19 03:27:50;;;;;;;1.60;1.50;;;8.00;94.30;;;;;;5024234;28;20208;-51
2023/11/19 03:30:17;;;;;;;1.83;1.57;;;8.10;94.60;;;;;;5029435;28;20297;-53
2023/11/19 03:32:44;;;;;;;1.80;1.70;;;8.10;94.50;;;;;;5024607;28;20217;-53
2023/11/19 03:35:11;;;;;;;1.90;1.80;;;8.10;94.90;;;;;;5030324;28;20236;-54
2023/11/19 03:37:39;;;;;;;1.90;1.70;;;8.20;95.30;;;;;;5022191;28;20240;-53
2023/11/19 03:40:06;;;;;;;1.80;1.70;;;8.30;95.00;;;;;;5031336;28;20220;-55
2023/11/19 03:42:32;;;;;;;1.80;1.70;;;8.20;95.00;;;;;;5032417;28;20207;-52
2023/11/19 03:44:59;;;;;;;1.90;1.80;;;8.20;94.90;;;;;;5028858;28;20313;-52
2023/11/19 03:47:25;;;;;;;1.80;1.70;;;8.20;94.90;;;;;;5032394;28;20301;-52
2023/11/19 03:49:51;;;;;;;1.57;1.47;;;8.30;95.00;;;;;;5023142;28;20303;-54
2023/11/19 03:52:18;;;;;;;2.17;1.80;;;8.30;95.00;;;;;;5028844;28;20295;-51
2023/11/19 03:54:45;;;;;;;1.40;1.40;;;8.40;95.10;;;;;;5032166;28;20241;-55
2023/11/19 03:57:12;;;;;;;1.70;1.60;;;8.40;95.00;;;;;;5036842;28;20329;-56
2023/11/19 03:59:38;;;;;;;1.70;1.60;;;8.50;95.10;;;;;;5031039;28;20213;-53
2023/11/19 04:02:04;;;;;;;1.80;1.70;;;8.50;95.40;;;;;;5031351;28;20218;-54
2023/11/19 04:04:31;;;;;;;1.60;1.50;;;8.60;95.60;;;;;;5030312;28;20216;-53
2023/11/19 04:06:57;;;;;;;1.73;1.63;;;8.70;96.10;;;;;;5034770;28;20209;-55
2023/11/19 04:09:24;;;;;;;1.37;1.37;;;8.80;96.00;;;;;;5032316;28;20566;-53
2023/11/19 04:11:50;;;;;;;1.60;1.50;;;8.90;95.90;;;;;;5032923;28;20209;-55
2023/11/19 04:14:18;;;;;;;1.30;1.30;;;8.80;95.80;;;;;;5029911;28;20237;-55
2023/11/19 04:16:44;;;;;;;1.37;1.37;;;8.90;96.10;;;;;;5027777;28;20322;-55
2023/11/19 04:19:11;;;;;;;1.30;1.30;;;8.90;96.00;;;;;;5033382;28;20210;-52
2023/11/19 04:21:37;;;;;;;2.33;1.47;;;8.90;95.90;;;;;;5038497;28;20296;-56
2023/11/19 04:24:03;;;;;;;1.33;1.30;;;9.00;96.00;;;;;;5039362;28;20297;-52
2023/11/19 04:26:31;;;;;;;1.33;1.30;;;9.00;96.10;;;;;;5032380;28;20219;-55
2023/11/19 04:28:58;;;;;;;1.43;1.30;;;9.10;96.00;;;;;;5035100;28;20210;-52
2023/11/19 04:31:24;;;;;;;1.20;1.20;;;9.10;95.90;;;;;;5030678;28;20212;-52
2023/11/19 04:33:54;;;;;;;1.50;1.40;;;9.10;96.10;;;;;;5026429;28;20212;-55
2023/11/19 04:36:24;;;;;;;1.50;1.50;;;9.20;96.30;;;;;;5029783;28;20663;-56
2023/11/19 04:38:50;;;;;;;1.47;1.40;;;9.20;96.40;;;;;;5026233;28;20209;-55
2023/11/19 04:41:17;;;;;;;1.43;1.40;;;9.20;96.10;;;;;;5035451;28;20219;-56
2023/11/19 04:43:43;;;;;;;1.40;1.40;;;9.20;96.10;;;;;;5040328;28;20298;-56
2023/11/19 04:46:10;;;;;;;1.23;1.23;;;9.30;98.70;;;;;;5021624;28;20222;-55
2023/11/19 04:48:36;;;;;;;1.50;1.40;;;9.30;99.90;;;;;;5022590;28;20207;-52
2023/11/19 04:51:03;;;;;;;1.27;1.27;;;9.30;99.90;;;;;;5027593;28;20298;-54
2023/11/19 04:53:29;;;;;;;1.80;1.40;;;9.30;96.00;;;;;;5027585;28;20297;-55
2023/11/19 04:55:56;;;;;;;1.33;1.20;;;9.30;96.00;;;;;;5027191;28;20226;-51
2023/11/19 04:58:22;;;;;;;1.57;1.47;;;9.40;95.90;;;;;;5034030;28;20297;-53
2023/11/19 05:00:49;;;;;;;1.30;1.30;;;9.40;96.40;;;;;;5030417;28;20750;-53
2023/11/19 05:03:15;;;;;;;1.40;1.30;;;9.40;95.90;;;;;;5037909;28;20211;-53
2023/11/19 05:05:42;;;;;;;1.50;1.40;;;9.50;95.90;;;;;;5031998;28;20305;-55
2023/11/19 05:08:08;;;;;;;1.40;1.40;;;9.50;95.50;;;;;;5035320;28;20230;-53
2023/11/19 05:10:36;;;;;;;1.30;1.20;;;9.60;95.50;;;;;;5030012;28;20211;-56
2023/11/19 05:13:03;;;;;;;1.40;1.30;;;9.60;95.20;;;;;;5029529;28;20207;-54
2023/11/19 05:15:29;;;;;;;1.53;1.43;;;9.60;95.10;;;;;;5028924;28;20316;-52
2023/11/19 05:17:56;;;;;;;1.87;1.50;;;9.70;95.10;;;;;;5028338;28;20226;-53
2023/11/19 05:20:22;;;;;;;1.50;1.50;;;9.60;95.20;;;;;;5027169;28;20220;-55
2023/11/19 05:22:53;;;;;;;1.30;1.30;;;9.70;95.10;;;;;;5034771;28;20207;-51
2023/11/19 05:25:20;;;;;;;1.60;1.50;;;9.70;94.80;;;;;;5028545;28;20226;-56
2023/11/19 05:27:46;;;;;;;1.37;1.37;;;9.70;94.50;;;;;;5037754;28;20214;-54
2023/11/19 05:30:13;;;;;;;1.93;1.70;;;9.70;94.40;;;;;;5031668;28;20297;-51
2023/11/19 05:32:39;;;;;;;1.43;1.37;;;9.70;94.20;;;;;;5031090;28;20304;-53
2023/11/19 05:35:05;;;;;;;2.53;1.80;;;9.70;94.30;;;;;;5029008;28;20254;-52
2023/11/19 05:37:33;;;;;;;1.57;1.57;;;9.70;94.50;;;;;;5030953;28;20221;-53
2023/11/19 05:40:00;;;;;;;1.40;1.40;;;9.70;94.30;;;;;;5035067;28;20206;-55
2023/11/19 05:42:27;;;;;;;1.50;1.40;;;9.70;94.10;;;;;;5037241;28;20218;-52
2023/11/19 05:44:53;;;;;;;1.30;1.20;;;9.80;94.00;;;;;;5030546;28;20219;-54
2023/11/19 05:47:20;;;;;;;1.50;1.47;;;9.70;93.80;;;;;;5028644;28;20205;-54
2023/11/19 05:49:46;;;;;;;1.67;1.57;;;9.70;93.70;;;;;;5031169;28;20222;-55
2023/11/19 05:52:13;;;;;;;1.67;1.57;;;9.70;93.70;;;;;;5037396;28;20203;-53
2023/11/19 05:54:39;;;;;;;1.83;1.73;;;9.70;93.70;;;;;;5029442;28;20227;-51
2023/11/19 05:57:06;;;;;;;1.27;1.27;;;9.70;93.70;;;;;;5031131;28;20219;-51
2023/11/19 05:59:33;;;;;;;1.40;1.30;;;9.70;93.70;;;;;;5030159;28;20214;-52
2023/11/19 06:01:59;;;;;;;1.40;1.40;;;9.80;93.80;;;;;;5026916;28;20285;-55
2023/11/19 06:04:25;;;;;;;1.40;1.30;;;9.80;93.50;;;;;;5027996;28;20293;-51
2023/11/19 06:06:52;;;;;;;1.60;1.50;;;9.80;93.30;;;;;;5021803;28;20198;-52
2023/11/19 06:09:19;;;;;;;1.43;1.40;;;9.80;93.30;;;;;;5031102;28;20664;-52
2023/11/19 06:11:47;;;;;;;1.77;1.23;;;9.80;93.50;;;;;;5019268;28;20210;-54
2023/11/19 06:14:13;;;;;;;1.70;1.60;;;9.80;93.50;;;;;;5026059;28;20209;-56
2023/11/19 06:16:40;;;;;;;1.77;1.67;;;9.80;93.50;;;;;;5029162;28;20317;-55
2023/11/19 06:19:07;;;;;;;1.80;1.70;;;9.80;93.60;;;;;;5025786;28;20217;-52
2023/11/19 06:21:35;;;;;;;1.37;1.30;;;9.90;93.70;;;;;;5030004;28;20205;-51
2023/11/19 06:24:02;;;;;;;1.33;1.33;;;9.90;93.50;;;;;;5028863;28;20215;-51
2023/11/19 06:26:28;;;;;;;1.40;1.40;;;9.90;93.70;;;;;;5029939;28;20328;-51
2023/11/19 06:28:55;;;;;;;1.70;1.60;;;9.80;93.60;;;;;;5033729;28;20208;-54
2023/11/19 06:31:21;;;;;;;1.60;1.50;;;9.90;93.40;;;;;;5030228;28;20298;-55
2023/11/19 06:33:48;;;;;;;1.20;1.20;;;9.90;93.30;;;;;;5033081;28;20216;-54
2023/11/19 06:36:16;;;;;;;1.40;1.40;;;9.90;93.50;;;;;;5038147;28;20232;-54
2023/11/19 06:38:42;;;;;;;1.63;1.53;;;9.90;93.60;;;;;;5027643;28;20320;-55
2023/11/19 06:41:09;;;;;;;1.53;1.50;;;9.90;93.20;;;;;;5029968;28;20230;-51
2023/11/19 06:43:36;;;;;;;1.50;1.40;;;10.00;92.90;;;;;;5029657;28;20211;-52
2023/11/19 06:46:05;;;;;;;1.47;1.40;;;10.00;93.00;;;;;;5032258;28;20309;-55
2023/11/19 06:48:32;;;;;;;1.60;1.50;;;10.00;92.70;;;;;;5025165;28;20198;-53
2023/11/19 06:50:58;;;;;;;1.60;1.50;;;10.00;92.70;;;;;;5034072;28;20289;-51
2023/11/19 06:53:25;;;;;;;1.20;1.20;;;10.00;92.50;;;;;;5010563;28;20214;-50
2023/11/19 06:55:51;;;;;;;1.40;1.40;;;10.10;92.70;;;;;;5009302;28;20353;-58
2023/11/19 06:58:18;;;;;;;1.23;1.23;;;10.70;95.40;;;;;;5022735;28;20716;-51
2023/11/19 07:00:47;;;;;;;1.40;1.30;;;10.80;88.80;;;;;;5020469;28;20293;-53
2023/11/19 07:03:13;;;;;;;1.37;1.37;;;10.50;89.80;;;;;;5016818;28;20249;-51
2023/11/19 07:05:40;;;;;;;1.47;1.40;;;10.40;90.60;;;;;;5020579;28;20313;-56
2023/11/19 07:08:07;;;;;;;1.20;1.20;;;10.30;91.30;;;;;;5022023;28;20398;-50
2023/11/19 07:10:33;;;;;;;1.43;1.40;;;10.30;91.10;;;;;;5029672;28;20227;-50
2023/11/19 07:13:00;;;;;;;1.23;1.23;;;10.30;91.30;;;;;;5027535;28;20211;-52
2023/11/19 07:15:26;;;;;;;1.50;1.40;;;10.40;91.40;;;;;;5030082;28;20227;-54
2023/11/19 07:17:54;;;;;;;1.70;1.60;;;10.30;91.60;;;;;;5033545;28;20228;-52
2023/11/19 07:20:21;;;;;;;1.23;1.20;;;10.30;91.90;;;;;;5034825;28;20206;-51
2023/11/19 07:22:47;;;;;;;1.30;1.30;;;10.30;91.40;;;;;;5033766;28;20237;-53
2023/11/19 07:25:13;;;;;;;1.40;1.30;;;10.40;91.60;;;;;;5028070;28;20717;-55
2023/11/19 07:27:40;;;;;;;1.20;1.20;;;10.40;91.60;;;;;;5034279;28;20665;-51
2023/11/19 07:30:07;;;;;;;1.23;1.23;;;10.40;91.60;;;;;;5023131;28;20623;-52
2023/11/19 07:32:34;;;;;;;1.33;1.27;;;10.50;91.60;;;;;;5033083;28;20670;-52
2023/11/19 07:35:00;;;;;;;1.43;1.40;;;10.50;91.70;;;;;;5014666;28;20250;-50
2023/11/19 07:37:27;;;;;;;1.13;1.13;;;10.50;91.50;;;;;;4998576;28;20713;-54
2023/11/19 07:39:53;;;;;;;1.30;1.30;;;10.50;91.70;;;;;;5022566;28;20661;-52
2023/11/19 07:42:20;;;;;;;1.20;1.20;;;10.50;91.60;;;;;;5030455;28;20207;-54
2023/11/19 07:44:46;;;;;;;1.07;1.07;;;10.50;91.20;;;;;;5037590;28;20314;-48
2023/11/19 07:47:13;;;;;;;1.27;1.27;;;10.50;91.20;;;;;;5022032;28;20202;-50
2023/11/19 07:49:40;;;;;;;1.63;1.53;;;10.60;91.30;;;;;;5023683;28;20236;-49
2023/11/19 07:52:07;;;;;;;1.10;1.10;;;10.60;91.20;;;;;;5019788;28;23433;-50
2023/11/19 07:54:33;;;;;;;1.10;1.10;;;10.60;91.20;;;;;;5026204;28;20209;-48
2023/11/19 07:57:00;;;;;;;1.20;1.10;;;10.60;91.20;;;;;;5032204;28;20698;-54
2023/11/19 07:59:26;;;;;;;1.20;1.20;;;10.60;91.20;;;;;;5026570;28;20251;-48
2023/11/19 08:01:53;;;;;;;1.20;1.20;;;10.70;91.00;;;;;;5027401;28;20208;-61
2023/11/19 08:04:19;;;;;;;1.43;1.33;;;10.70;90.70;;;;;;4999024;28;20207;-47
2023/11/19 08:06:45;;;;;;;1.10;1.00;;;10.70;90.80;;;;;;5021571;28;20206;-50
2023/11/19 08:09:13;;;;;;;1.10;1.10;;;10.80;90.40;;;;;;5032649;28;20219;-49
2023/11/19 08:11:39;;;;;;;1.23;1.23;;;10.80;90.70;;;;;;5022377;28;20210;-53
2023/11/19 08:14:06;;;;;;;1.10;1.10;;;10.80;90.50;;;;;;5025650;28;20297;-52
2023/11/19 08:16:32;;;;;;;1.00;1.00;;;10.80;90.40;;;;;;5018463;28;20240;-50
2023/11/19 08:18:59;;;;;;;1.10;1.10;;;10.80;90.20;;;;;;5021971;28;20225;-52
2023/11/19 08:21:26;;;;;;;1.20;1.20;;;10.90;90.00;;;;;;5037477;28;20219;-49
2023/11/19 08:23:53;;;;;;;1.00;1.00;;;10.90;88.80;;;;;;5032954;28;20215;-50
2023/11/19 08:26:19;;;;;;;1.00;1.00;;;10.90;89.40;;;;;;5030272;28;20316;-49
2023/11/19 08:28:46;;;;;;;1.10;1.10;;;11.00;89.40;;;;;;5030775;28;20292;-49
2023/11/19 08:31:12;;;;;;;1.00;1.00;;;11.00;89.10;;;;;;5027463;28;20304;-49
2023/11/19 08:33:39;;;;;;;1.17;1.17;;;11.00;89.00;;;;;;5020646;28;20219;-55
2023/11/19 08:36:06;;;;;;;1.20;1.20;;;11.00;89.40;;;;;;5032088;28;20234;-51
2023/11/19 08:38:32;;;;;;;1.17;1.10;;;11.00;88.60;;;;;;5029667;28;20233;-51
2023/11/19 08:40:59;;;;;;;1.73;1.23;;;11.00;88.20;;;;;;5036630;28;20244;-49
2023/11/19 08:43:26;;;;;;;1.00;1.00;;;11.10;88.80;;;;;;5025825;28;20289;-50
2023/11/19 08:45:52;;;;;;;1.03;1.03;;;11.00;88.20;;;;;;5028102;28;20229;-49
2023/11/19 08:48:19;;;;;;;1.30;1.30;;;11.10;88.60;;;;;;5031966;28;20244;-48
2023/11/19 08:50:45;;;;;;;1.10;1.10;;;11.10;87.50;;;;;;5025426;28;20320;-51
2023/11/19 08:53:12;;;;;;;1.40;1.30;;;11.20;87.20;;;;;;5023944;28;20284;-57
2023/11/19 08:55:38;;;;;;;1.20;1.10;;;11.20;87.20;;;;;;5032929;28;20240;-50
2023/11/19 08:58:05;;;;;;;1.40;1.30;;;11.20;88.00;;;;;;5028523;28;20251;-49
2023/11/19 09:00:32;;;;;;;1.00;1.00;;;11.20;87.40;;;;;;5027514;28;20213;-50
2023/11/19 09:02:59;;;;;;;1.20;1.20;;;11.20;87.40;;;;;;5032255;28;20219;-50
2023/11/19 09:05:25;;;;;;;1.40;1.40;;;11.20;87.90;;;;;;5027477;28;20227;-49
2023/11/19 09:07:52;;;;;;;1.33;1.23;;;11.30;87.20;;;;;;5033615;28;20643;-56
2023/11/19 09:10:19;;;;;;;1.43;1.33;;;11.30;87.20;;;;;;5025756;28;20217;-53
2023/11/19 09:12:45;;;;;;;1.30;1.20;;;11.30;87.00;;;;;;5035579;28;20213;-54
2023/11/19 09:15:11;;;;;;;1.13;1.13;;;11.30;86.30;;;;;;5025038;28;20304;-54
2023/11/19 09:17:38;;;;;;;1.60;1.50;;;11.40;86.30;;;;;;5029183;28;20355;-54
2023/11/19 09:20:04;;;;;;;1.20;1.20;;;11.40;86.10;;;;;;5024796;28;20748;-47
2023/11/19 09:22:31;;;;;;;1.60;1.30;;;11.40;86.20;;;;;;5029687;28;20752;-50
2023/11/19 09:25:00;;;;;;;1.10;1.10;;;11.40;86.50;;;;;;5036426;28;20309;-53
2023/11/19 09:27:26;;;;;;;1.17;1.17;;;11.50;86.20;;;;;;5032682;28;20197;-56
2023/11/19 09:29:57;;;;;;;1.43;1.17;;;11.50;85.40;;;;;;5028287;28;20246;-55
2023/11/19 09:32:23;;;;;;;1.30;1.20;;;11.60;85.60;;;;;;5034576;28;20209;-55
2023/11/19 09:34:50;;;;;;;1.30;1.30;;;11.60;85.30;;;;;;5035010;28;20223;-56
2023/11/19 09:37:16;;;;;;;0.90;0.90;;;11.70;85.00;;;;;;5011519;28;20209;-56
2023/11/19 09:39:43;;;;;;;1.00;1.00;;;11.70;84.90;;;;;;5029605;28;20283;-56
2023/11/19 09:42:10;;;;;;;1.03;1.03;;;11.60;85.20;;;;;;5032999;28;20213;-56
2023/11/19 09:44:37;;;;;;;1.10;1.10;;;11.60;85.00;;;;;;5034261;28;20225;-58
2023/11/19 09:47:03;;;;;;;1.37;1.23;;;11.70;84.90;;;;;;5037768;28;20249;-50
2023/11/19 09:49:30;;;;;;;1.00;1.00;;;11.70;86.40;;;;;;5025329;28;20238;-50
2023/11/19 09:51:56;;;;;;;1.30;1.20;;;11.60;87.00;;;;;;5024597;28;20209;-54
2023/11/19 09:54:21;;;;;;;1.57;1.27;;;11.60;86.40;;;;;;5016243;28;20202;-51
2023/11/19 09:56:48;;;;;;;1.60;1.40;;;11.60;87.40;;;;;;5028149;28;20301;-51
2023/11/19 09:59:14;;;;;;;1.37;1.30;;;11.70;86.40;;;;;;5028558;28;20236;-49
2023/11/19 10:01:41;;;;;;;1.27;1.27;;;11.80;86.50;;;;;;5027862;28;20695;-51
2023/11/19 10:04:08;;;;;;;1.30;1.30;;;11.90;85.30;;;;;;5030864;28;20242;-51
2023/11/19 10:06:34;;;;;;;1.20;1.20;;;12.10;83.50;;;;;;5030423;28;20222;-54
2023/11/19 10:09:00;;;;;;;1.50;1.40;;;12.10;82.90;;;;;;5020349;28;20301;-50
2023/11/19 10:11:27;;;;;;;1.20;1.17;;;12.20;82.50;;;;;;5027251;28;24782;-51
2023/11/19 10:13:54;;;;;;;1.07;1.07;;;12.30;82.20;;;;;;5026595;28;20302;-50
2023/11/19 10:16:20;;;;;;;1.70;1.13;;;12.50;79.80;;;;;;5024047;28;20749;-55
2023/11/19 10:18:48;;;;;;;1.97;1.20;;;12.40;80.20;;;;;;5026084;28;20764;-52
2023/11/19 10:21:16;;;;;;;1.20;1.20;;;12.50;79.70;;;;;;5003121;28;20201;-52
2023/11/19 10:23:43;;;;;;;1.20;1.10;;;12.60;78.90;;;;;;5022672;28;20211;-54
2023/11/19 10:26:09;;;;;;;1.27;1.17;;;12.90;78.40;;;;;;5018300;28;20230;-52
2023/11/19 10:28:36;;;;;;;1.30;1.20;;;13.80;74.20;;;;;;5029535;28;20209;-51
2023/11/19 10:31:02;;;;;;;1.20;1.20;;;13.90;71.20;;;;;;5011594;28;20214;-52
2023/11/19 10:33:29;;;;;;;1.40;1.20;;;14.20;70.00;;;;;;5031150;28;20212;-55
2023/11/19 10:35:56;;;;;;;1.00;1.00;;;13.90;70.50;;;;;;5029373;28;20312;-52
2023/11/19 10:38:23;;;;;;;1.23;1.13;;;13.70;70.60;;;;;;5021755;28;20287;-52
2023/11/19 10:40:50;;;;;;;1.33;1.23;;;13.60;71.60;;;;;;5033040;28;20232;-51
2023/11/19 10:43:17;;;;;;;1.30;1.20;;;13.70;71.00;;;;;;5028825;28;20581;-53
2023/11/19 10:45:43;;;;;;;1.27;1.17;;;13.70;71.00;;;;;;5032705;28;20229;-54
2023/11/19 10:48:10;;;;;;;1.03;1.00;;;14.10;69.40;;;;;;5025637;28;20236;-52
2023/11/19 10:50:36;;;;;;;1.17;1.17;;;15.00;67.20;;;;;;5015113;28;20212;-52
2023/11/19 10:53:03;;;;;;;1.10;1.00;;;14.90;65.10;;;;;;5028710;28;20205;-55
2023/11/19 10:55:30;;;;;;;1.17;1.07;;;15.40;63.20;;;;;;5032768;28;20238;-52
2023/11/19 10:57:56;;;;;;;0.97;0.97;;;15.00;63.50;;;;;;5027862;28;20229;-53
2023/11/19 11:00:23;;;;;;;0.90;0.90;;;14.30;66.40;;;;;;5024966;28;20308;-51
2023/11/19 11:02:49;;;;;;;1.00;1.00;;;14.20;67.30;;;;;;5031991;28;20216;-53
2023/11/19 11:05:16;;;;;;;1.00;1.00;;;14.90;65.80;;;;;;5023870;28;20219;-49
2023/11/19 11:07:42;;;;;;;0.93;0.93;;;15.40;62.20;;;;;;5031032;28;20709;-50
2023/11/19 11:10:09;;;;;;;0.90;0.90;;;15.70;61.40;;;;;;5028419;28;20706;-52
2023/11/19 11:12:35;;;;;;;0.70;0.70;;;16.50;57.90;;;;;;5027248;28;20668;-54
2023/11/19 11:15:01;;;;;;;0.82;0.82;;;16.40;58.90;;;;;;5015793;28;20296;-48
2023/11/19 11:17:28;;;;;;;0.95;0.90;;;15.50;61.70;;;;;;5013326;28;20212;-49
2023/11/19 11:19:54;;;;;;;1.57;1.00;;;14.90;63.90;;;;;;5017106;28;20301;-50
2023/11/19 11:22:21;;;;;;;0.90;0.90;;;14.60;63.70;;;;;;5029024;28;20214;-50
2023/11/19 11:24:47;;;;;;;1.03;0.90;;;14.70;64.10;;;;;;5025029;28;20241;-50
2023/11/19 11:27:14;;;;;;;0.90;0.90;;;14.60;63.80;;;;;;5028950;28;20210;-47
2023/11/19 11:29:40;;;;;;;1.57;0.90;;;14.90;63.10;;;;;;5019228;28;20257;-51
2023/11/19 11:32:07;;;;;;;0.90;0.90;;;14.50;63.50;;;;;;5019203;28;20299;-50
2023/11/19 11:34:33;;;;;;;0.90;0.90;;;14.40;64.90;;;;;;5028862;28;20210;-51
2023/11/19 11:37:00;;;;;;;0.90;0.90;;;15.40;62.90;;;;;;5030011;28;20298;-54
2023/11/19 11:39:26;;;;;;;0.98;0.98;;;15.50;61.10;;;;;;5006087;28;20236;-51
2023/11/19 11:41:53;;;;;;;0.73;0.73;;;16.90;58.20;;;;;;4989870;28;20731;-50
2023/11/19 11:44:19;;;;;;;0.82;0.70;;;19.00;52.30;;;;;;5025689;28;20300;-53
2023/11/19 11:46:45;;;;;;;0.80;0.80;;;19.80;49.20;;;;;;5027916;28;20211;-54
2023/11/19 11:49:12;;;;;;;0.80;0.80;;;18.30;51.50;;;;;;5029489;28;20305;-52
2023/11/19 11:51:38;;;;;;;0.50;0.50;;;19.10;49.60;;;;;;5025774;28;20206;-60
2023/11/19 11:54:04;;;;;;;1.25;0.50;;;21.50;44.60;;;;;;5027511;28;20202;-54
2023/11/19 11:56:31;;;;;;;0.55;0.30;;;21.70;41.90;;;;;;5024248;28;20322;-53
2023/11/19 11:58:59;;;;;;;0.50;0.50;;;21.30;43.20;;;;;;5028810;28;20232;-55
2023/11/19 12:01:28;;;;;;;0.63;0.50;;;20.60;44.70;;;;;;5032321;28;20217;-52
2023/11/19 12:03:54;;;;;;;0.55;0.55;;;19.20;48.80;;;;;;5027460;28;20288;-52
2023/11/19 12:06:21;;;;;;;0.93;0.70;;;18.80;49.00;;;;;;5032995;28;20309;-53
2023/11/19 12:08:47;;;;;;;0.60;0.60;;;19.80;47.00;;;;;;5032388;28;20198;-50
2023/11/19 12:11:13;;;;;;;0.70;0.70;;;19.70;45.20;;;;;;5030710;28;20278;-50
2023/11/19 12:13:40;;;;;;;0.50;0.50;;;19.60;46.60;;;;;;5031579;28;20216;-51
2023/11/19 12:16:07;;;;;;;0.50;0.50;;;19.70;45.30;;;;;;5026045;28;20329;-51
2023/11/19 12:18:33;;;;;;;1.30;0.60;;;19.60;47.50;;;;;;5024718;28;20230;-50
2023/11/19 12:21:00;;;;;;;2.38;0.82;;;20.30;45.70;;;;;;5034083;28;20739;-54
2023/11/19 12:23:27;;;;;;;0.60;0.60;;;20.80;44.80;;;;;;5032541;28;20206;-54
2023/11/19 12:25:53;;;;;;;0.70;0.60;;;19.80;45.80;;;;;;5031371;28;20479;-51
2023/11/19 12:28:20;;;;;;;0.73;0.68;;;18.90;46.70;;;;;;5024852;28;20216;-54
2023/11/19 12:30:48;;;;;;;0.70;0.70;;;19.10;47.10;;;;;;5031722;28;20313;-50
2023/11/19 12:33:14;;;;;;;0.73;0.57;;;19.20;46.50;;;;;;5033729;28;20203;-51
2023/11/19 12:35:41;;;;;;;0.60;0.60;;;16.80;51.40;;;;;;5032525;28;20233;-51
2023/11/19 12:38:07;;;;;;;0.55;0.55;;;18.10;49.20;;;;;;5039391;28;20631;-52
2023/11/19 12:40:34;;;;;;;0.63;0.63;;;18.10;48.40;;;;;;5031715;28;20672;-52
2023/11/19 12:43:00;;;;;;;0.70;0.70;;;18.70;48.10;;;;;;5041451;28;20228;-48
2023/11/19 12:45:26;;;;;;;0.80;0.80;;;20.00;45.30;;;;;;5026872;28;20234;-52
2023/11/19 12:47:54;;;;;;;0.85;0.85;;;18.90;49.70;;;;;;5037504;28;20214;-52
2023/11/19 12:50:21;;;;;;;0.60;0.60;;;18.40;51.40;;;;;;5037797;28;20263;-51